Eddyville, Iowa
Current Conditions -  °F | °C
As of 8:55 AM on Friday 19 Dec 2014 (Local Time) from KOOA Reporting Station
Overcast Overcast  
Wind Chill: 21°   Ceiling: 4600
Heat Index: 27°   Visibility: 7mi
Dew Point: 24°   Wind: 6mph
Humidity: 87%   Direction: 110°ESE
Pressure: 30.3"   Gusts: NA
Location:  41.16°N, 92.63°W
Report Text: KOOA 191455Z AUTO 11005KT 7SM OVC046 M03/M04 A3030 RMK AO2 T10261045
Loading
Personal Weather Stations






























Interactive Weather Map New forecast layout! Learn more

10-Day Weather Forecast

Advertisements
Track Severe Weather on mobile